Time;durP1;ratioP1;P1;durP2;ratioP2;P2;SDS_P1;SDS_P2;PMS_P1;PMS_P2;Temp;Humidity;BMP_temperature;BMP_pressure;BME280_temperature;BME280_humidity;BME280_pressure;Samples;Min_cycle;Max_cycle;Signal;HPM_P1;HPM_P2
2021/12/16 00:09:01;;;;;;;26.67;17.98;;;7.80;99.90;;;;;;5045449;28;20080;-77
2021/12/16 00:33:32;;;;;;;33.08;20.08;;;7.80;99.90;;;;;;5042664;28;20076;-77
2021/12/16 00:36:02;;;;;;;29.77;20.42;;;7.90;99.90;;;;;;5027660;28;20041;-76
2021/12/16 00:38:31;;;;;;;35.35;20.77;;;7.80;99.90;;;;;;5044252;28;20190;-77
2021/12/16 00:40:59;;;;;;;30.73;20.77;;;7.80;99.90;;;;;;5026452;28;20053;-77
2021/12/16 00:43:39;;;;;;;30.83;21.05;;;7.80;99.90;;;;;;5027983;28;20048;-76
2021/12/16 00:54:10;;;;;;;36.35;23.33;;;7.80;99.90;;;;;;5028651;28;20098;-76
2021/12/16 00:56:44;;;;;;;35.45;25.00;;;7.80;99.90;;;;;;5044275;28;20087;-78
2021/12/16 00:59:12;;;;;;;36.65;25.48;;;7.80;99.90;;;;;;5011644;28;20131;-77
2021/12/16 01:04:59;;;;;;;38.22;25.83;;;7.80;99.90;;;;;;5044113;28;20056;-78
2021/12/16 01:50:54;;;;;;;58.72;37.25;;;7.30;99.90;;;;;;5038532;28;20041;-72
2021/12/16 01:53:50;;;;;;;60.30;37.50;;;7.30;99.90;;;;;;5043737;28;20102;-72
2021/12/16 01:56:27;;;;;;;67.22;37.35;;;7.30;99.90;;;;;;5046921;28;20060;-72
2021/12/16 01:58:53;;;;;;;64.60;37.40;;;7.30;99.90;;;;;;5047186;28;20118;-77
2021/12/16 02:01:28;;;;;;;64.00;38.00;;;7.30;99.90;;;;;;5047721;28;20049;-77
2021/12/16 02:04:12;;;;;;;66.03;39.50;;;7.20;99.90;;;;;;5047110;28;20120;-77
2021/12/16 02:07:09;;;;;;;59.05;33.70;;;7.20;99.90;;;;;;5030907;28;20048;-77
2021/12/16 02:09:44;;;;;;;70.25;41.35;;;7.20;99.90;;;;;;5031868;28;20393;-77
2021/12/16 02:28:46;;;;;;;74.90;42.75;;;7.20;99.90;;;;;;5032606;28;20053;-71
2021/12/16 02:31:32;;;;;;;76.87;43.07;;;7.20;99.90;;;;;;5032272;28;20391;-72
2021/12/16 02:36:46;;;;;;;72.17;43.00;;;7.20;99.90;;;;;;5046940;28;20052;-72
2021/12/16 02:39:24;;;;;;;70.00;41.58;;;7.20;99.90;;;;;;5046724;28;20119;-72
2021/12/16 02:41:59;;;;;;;79.28;43.83;;;7.20;99.90;;;;;;5026665;28;20055;-71
2021/12/16 02:49:56;;;;;;;63.80;41.37;;;7.20;99.90;;;;;;5045335;28;20054;-72
2021/12/16 02:52:26;;;;;;;85.35;45.13;;;7.20;99.90;;;;;;5043635;28;20036;-71
2021/12/16 02:54:52;;;;;;;89.03;47.83;;;7.20;99.90;;;;;;5045537;28;20111;-72
2021/12/16 02:57:19;;;;;;;71.03;42.97;;;7.20;99.90;;;;;;5045707;28;20076;-72
2021/12/16 02:59:46;;;;;;;74.60;44.20;;;7.20;99.90;;;;;;5012271;28;20071;-72
2021/12/16 03:02:16;;;;;;;70.97;44.95;;;7.20;99.90;;;;;;5042531;28;20102;-72
2021/12/16 03:04:46;;;;;;;73.90;43.88;;;7.20;99.90;;;;;;5040355;28;20057;-72
2021/12/16 03:07:14;;;;;;;71.80;44.20;;;7.20;99.90;;;;;;5044161;28;20095;-72
2021/12/16 03:15:02;;;;;;;78.60;45.60;;;7.20;99.90;;;;;;5044246;28;20048;-77
2021/12/16 03:17:47;;;;;;;77.90;44.25;;;7.20;99.90;;;;;;5029165;28;20048;-77
2021/12/16 03:20:21;;;;;;;76.63;41.80;;;7.20;99.90;;;;;;5042816;28;20041;-72
2021/12/16 03:25:24;;;;;;;81.75;44.75;;;7.20;99.90;;;;;;5043242;28;20051;-72
2021/12/16 03:30:52;;;;;;;65.50;39.05;;;7.30;99.90;;;;;;5043790;28;20056;-72
2021/12/16 03:33:35;;;;;;;75.05;43.35;;;7.30;99.90;;;;;;5041528;28;20084;-72
2021/12/16 03:39:07;;;;;;;78.60;44.05;;;7.30;99.90;;;;;;5030923;28;20478;-72
2021/12/16 03:41:34;;;;;;;86.65;44.58;;;7.30;99.90;;;;;;5043766;28;20045;-72
2021/12/16 03:44:00;;;;;;;63.88;39.42;;;7.30;99.90;;;;;;5026772;28;20173;-72
2021/12/16 03:46:32;;;;;;;72.72;43.03;;;7.30;99.90;;;;;;5027369;28;20455;-72
2021/12/16 03:49:04;;;;;;;72.72;42.85;;;7.30;99.90;;;;;;5043095;28;20041;-72
2021/12/16 03:51:33;;;;;;;70.85;39.70;;;7.30;99.90;;;;;;5024245;28;20118;-72
2021/12/16 03:54:08;;;;;;;76.13;41.92;;;7.30;99.90;;;;;;5025413;28;20037;-72
2021/12/16 03:56:34;;;;;;;76.78;42.75;;;7.20;99.90;;;;;;5043511;28;20048;-72
2021/12/16 03:59:00;;;;;;;73.32;43.03;;;7.20;99.90;;;;;;5043190;28;20583;-72
2021/12/16 04:01:31;;;;;;;76.82;42.90;;;7.20;99.90;;;;;;5026026;28;20037;-72
2021/12/16 04:03:57;;;;;;;80.72;43.75;;;7.10;99.90;;;;;;5026727;28;20146;-72
2021/12/16 04:06:25;;;;;;;76.88;42.30;;;7.10;99.90;;;;;;5043401;28;20049;-73
2021/12/16 04:08:56;;;;;;;84.70;42.22;;;7.00;99.90;;;;;;5010464;28;20070;-72
2021/12/16 04:11:27;;;;;;;84.35;42.85;;;7.00;99.90;;;;;;5026680;28;20129;-72
2021/12/16 04:13:59;;;;;;;89.78;42.83;;;7.00;99.90;;;;;;5041604;28;20319;-72
2021/12/16 04:16:51;;;;;;;83.90;42.40;;;6.90;99.90;;;;;;5027171;28;20091;-73
2021/12/16 04:19:24;;;;;;;66.88;37.53;;;6.90;99.90;;;;;;5043073;28;20336;-72
2021/12/16 04:22:02;;;;;;;78.22;41.38;;;6.80;99.90;;;;;;5025276;28;20128;-73
2021/12/16 04:24:33;;;;;;;90.00;43.55;;;6.80;99.90;;;;;;5040411;28;20400;-73
2021/12/16 04:26:59;;;;;;;;;;;6.70;99.90;;;;;;5026923;28;20055;-72
2021/12/16 04:29:26;;;;;;;102.55;47.08;;;6.70;99.90;;;;;;5010762;28;20453;-72
2021/12/16 04:31:54;;;;;;;120.55;49.88;;;6.80;99.90;;;;;;5042354;28;20488;-72
2021/12/16 04:34:20;;;;;;;93.53;47.65;;;6.80;99.90;;;;;;5041039;28;20037;-72
2021/12/16 04:36:46;;;;;;;106.72;50.33;;;6.80;99.90;;;;;;5043583;28;20484;-72
2021/12/16 04:39:16;;;;;;;125.87;51.53;;;6.80;99.90;;;;;;5026401;28;20048;-72
2021/12/16 04:41:42;;;;;;;87.55;45.58;;;6.90;99.90;;;;;;5043069;28;20559;-72
2021/12/16 04:44:11;;;;;;;90.75;46.53;;;6.80;99.90;;;;;;5026908;28;20128;-72
2021/12/16 04:46:38;;;;;;;107.40;50.78;;;6.80;99.90;;;;;;5026156;28;20124;-72
2021/12/16 04:49:06;;;;;;;106.88;49.97;;;6.80;99.90;;;;;;5042555;28;20392;-72
2021/12/16 04:51:34;;;;;;;136.13;55.25;;;6.70;99.90;;;;;;5043306;28;20402;-72
2021/12/16 04:54:00;;;;;;;90.45;46.28;;;6.70;99.90;;;;;;5039894;28;20043;-72
2021/12/16 04:56:27;;;;;;;73.88;41.08;;;6.70;99.90;;;;;;5027087;28;20102;-73
2021/12/16 04:58:54;;;;;;;132.60;52.73;;;6.70;99.90;;;;;;5026230;28;20792;-72
2021/12/16 05:01:21;;;;;;;178.73;56.00;;;6.60;99.90;;;;;;5039487;28;20037;-72
2021/12/16 05:03:48;;;;;;;146.82;53.20;;;6.60;99.90;;;;;;5043401;28;20075;-72
2021/12/16 05:06:15;;;;;;;68.80;40.67;;;6.60;99.90;;;;;;5026466;28;20072;-72
2021/12/16 05:08:41;;;;;;;135.80;54.05;;;6.50;99.90;;;;;;5026126;28;20037;-72
2021/12/16 05:11:12;;;;;;;149.03;51.33;;;6.50;99.90;;;;;;5026380;28;20111;-72
2021/12/16 05:13:40;;;;;;;213.63;56.77;;;6.50;99.90;;;;;;5025541;28;20088;-72
2021/12/16 05:16:06;;;;;;;188.27;55.33;;;6.40;99.90;;;;;;5041009;28;20045;-72
2021/12/16 05:18:36;;;;;;;82.72;42.25;;;6.40;99.90;;;;;;5026685;28;20048;-72
2021/12/16 05:21:06;;;;;;;79.93;40.05;;;6.40;99.90;;;;;;5025007;28;20049;-72
2021/12/16 05:26:20;;;;;;;86.95;43.20;;;6.30;99.90;;;;;;5026026;28;20118;-72
2021/12/16 05:28:57;;;;;;;76.13;41.80;;;6.30;99.90;;;;;;5029196;28;20053;-72
2021/12/16 05:31:25;;;;;;;80.57;41.27;;;6.30;99.90;;;;;;5046330;28;20055;-72
2021/12/16 05:33:52;;;;;;;71.47;41.00;;;6.30;99.90;;;;;;5045768;28;20116;-72
2021/12/16 05:36:18;;;;;;;66.07;40.57;;;6.20;99.90;;;;;;5045302;28;20056;-72
2021/12/16 05:38:45;;;;;;;114.13;47.20;;;6.20;99.90;;;;;;5030550;28;20049;-72
2021/12/16 05:41:14;;;;;;;172.17;56.40;;;6.20;99.90;;;;;;5011375;28;20128;-72
2021/12/16 05:43:40;;;;;;;152.10;56.30;;;6.20;99.90;;;;;;5046962;28;20332;-72
2021/12/16 05:46:08;;;;;;;72.70;42.03;;;6.20;99.90;;;;;;5028822;28;20037;-72
2021/12/16 05:48:38;;;;;;;70.03;40.90;;;6.20;99.90;;;;;;5045959;28;20064;-72
2021/12/16 05:51:16;;;;;;;63.95;39.63;;;6.30;99.90;;;;;;5045721;28;20511;-72
2021/12/16 05:53:46;;;;;;;70.75;40.28;;;6.40;99.90;;;;;;5026185;28;20037;-72
2021/12/16 05:56:12;;;;;;;80.85;42.78;;;6.40;99.90;;;;;;5029502;28;20502;-72
2021/12/16 05:58:38;;;;;;;75.25;41.58;;;6.40;99.90;;;;;;5028556;28;20166;-72
2021/12/16 06:01:11;;;;;;;77.80;41.72;;;6.40;99.90;;;;;;5042954;28;20079;-72
2021/12/16 06:03:38;;;;;;;137.85;52.28;;;6.40;99.90;;;;;;5046149;28;20083;-72
2021/12/16 06:06:04;;;;;;;102.55;42.90;;;6.40;99.90;;;;;;5045470;28;20075;-72
2021/12/16 06:08:30;;;;;;;156.50;50.53;;;6.50;99.90;;;;;;5039837;28;20041;-72
2021/12/16 06:13:38;;;;;;;93.17;42.90;;;6.50;99.90;;;;;;5037211;28;20110;-73
2021/12/16 06:27:06;;;;;;;141.48;55.47;;;6.70;99.90;;;;;;5041578;28;20047;-72
2021/12/16 06:29:34;;;;;;;154.52;58.53;;;6.80;99.90;;;;;;5041291;28;20067;-72
2021/12/16 06:32:00;;;;;;;137.57;55.53;;;6.80;99.90;;;;;;5038995;28;20055;-72
2021/12/16 06:34:26;;;;;;;154.32;60.20;;;6.80;99.90;;;;;;5044200;28;20045;-72
2021/12/16 06:36:52;;;;;;;135.98;55.25;;;6.90;99.90;;;;;;5028807;28;20037;-72
2021/12/16 06:39:18;;;;;;;81.22;43.97;;;6.90;99.90;;;;;;5042688;28;20041;-72
2021/12/16 06:41:44;;;;;;;172.07;58.53;;;6.90;99.90;;;;;;5025822;28;20052;-72
2021/12/16 06:44:25;;;;;;;164.02;58.40;;;6.90;99.90;;;;;;5022581;28;20045;-72
2021/12/16 06:46:55;;;;;;;;;;;7.00;99.90;;;;;;5021594;28;20040;-72
2021/12/16 06:49:22;;;;;;;141.95;58.45;;;7.00;99.90;;;;;;5022606;28;19925;-72
2021/12/16 06:52:01;;;;;;;146.37;58.63;;;7.00;99.90;;;;;;5021202;28;20463;-72
2021/12/16 06:54:42;;;;;;;132.60;56.38;;;7.00;99.90;;;;;;5040171;28;20057;-72
2021/12/16 06:59:41;;;;;;;142.68;57.35;;;7.10;99.90;;;;;;5036797;28;20664;-72
2021/12/16 07:02:17;;;;;;;137.55;57.70;;;7.10;99.90;;;;;;5035059;28;20604;-72
2021/12/16 07:04:45;;;;;;;159.02;60.13;;;7.10;99.90;;;;;;5027908;28;20052;-73
2021/12/16 07:07:14;;;;;;;132.32;54.67;;;7.20;99.90;;;;;;5007386;28;20200;-72
2021/12/16 07:09:41;;;;;;;128.60;54.97;;;7.20;99.90;;;;;;5026111;28;20033;-72
2021/12/16 07:12:09;;;;;;;125.88;52.53;;;7.10;99.90;;;;;;5020324;28;20061;-72
2021/12/16 07:14:40;;;;;;;114.63;50.40;;;7.20;99.90;;;;;;5039054;28;20056;-73
2021/12/16 07:17:10;;;;;;;108.50;51.63;;;7.20;99.90;;;;;;5034909;28;20041;-72
2021/12/16 07:19:37;;;;;;;138.10;56.53;;;7.10;99.90;;;;;;5056983;28;20076;-73
2021/12/16 07:22:05;;;;;;;134.48;52.47;;;7.10;99.90;;;;;;5030441;28;20103;-72
2021/12/16 07:24:31;;;;;;;131.07;52.03;;;7.10;99.90;;;;;;5020267;28;20045;-73
2021/12/16 07:26:57;;;;;;;86.80;43.28;;;7.10;99.90;;;;;;5028030;28;20116;-73
2021/12/16 07:29:23;;;;;;;123.88;49.72;;;7.10;99.90;;;;;;5043403;28;20041;-73
2021/12/16 07:31:48;;;;;;;149.77;52.63;;;7.10;99.90;;;;;;5043856;28;20041;-72
2021/12/16 07:34:15;;;;;;;162.85;52.85;;;7.10;99.90;;;;;;5027679;28;20063;-72
2021/12/16 07:36:43;;;;;;;170.40;53.70;;;7.00;99.90;;;;;;5026861;28;20122;-72
2021/12/16 07:39:12;;;;;;;224.85;55.90;;;7.00;99.90;;;;;;5043855;28;20140;-72
2021/12/16 07:41:40;;;;;;;185.38;52.53;;;7.00;99.90;;;;;;5021951;28;20048;-72
2021/12/16 07:44:12;;;;;;;178.20;53.08;;;6.90;99.90;;;;;;5026543;28;20087;-72
2021/12/16 07:46:43;;;;;;;128.35;48.22;;;6.80;99.90;;;;;;5041809;28;20045;-72
2021/12/16 07:49:11;;;;;;;131.70;48.90;;;6.80;99.90;;;;;;5043207;28;20049;-72
2021/12/16 07:51:39;;;;;;;508.85;76.68;;;6.70;99.90;;;;;;5040946;28;20041;-72
2021/12/16 07:54:05;;;;;;;550.28;69.78;;;6.70;99.90;;;;;;5042767;28;20056;-72
2021/12/16 07:56:32;;;;;;;462.63;71.30;;;6.70;99.90;;;;;;5044509;28;20087;-72
2021/12/16 07:58:57;;;;;;;333.70;66.32;;;6.60;99.90;;;;;;5042064;28;20048;-72
2021/12/16 08:01:24;;;;;;;511.38;72.10;;;6.50;99.90;;;;;;5026383;28;20488;-72
2021/12/16 08:03:51;;;;;;;582.88;73.85;;;6.50;99.90;;;;;;5027769;28;20056;-72
2021/12/16 08:06:23;;;;;;;313.92;63.92;;;6.50;99.90;;;;;;5025268;28;20153;-72
2021/12/16 08:08:56;;;;;;;227.07;60.95;;;6.40;99.90;;;;;;5027754;28;20442;-72
2021/12/16 08:11:23;;;;;;;249.52;64.07;;;6.50;99.90;;;;;;5023282;28;20040;-72
2021/12/16 08:13:49;;;;;;;240.68;66.30;;;6.40;99.90;;;;;;5024333;28;20511;-72
2021/12/16 08:16:16;;;;;;;242.45;67.35;;;6.50;99.90;;;;;;5025904;28;20053;-72
2021/12/16 08:18:42;;;;;;;257.85;69.03;;;6.60;99.90;;;;;;5043188;28;20072;-72
2021/12/16 08:21:09;;;;;;;226.93;67.50;;;6.70;99.90;;;;;;5026247;28;20126;-72
2021/12/16 08:23:34;;;;;;;264.33;73.18;;;6.80;99.90;;;;;;5043265;28;20069;-71
2021/12/16 08:26:02;;;;;;;319.85;76.25;;;6.80;99.90;;;;;;5007707;28;20526;-72
2021/12/16 08:28:31;;;;;;;386.10;84.57;;;6.90;99.90;;;;;;5026544;28;20044;-72
2021/12/16 08:30:57;;;;;;;400.10;83.72;;;7.00;99.90;;;;;;5042469;28;20134;-72
2021/12/16 08:33:23;;;;;;;449.92;87.90;;;7.10;99.90;;;;;;5009194;28;20071;-72
2021/12/16 08:35:51;;;;;;;465.52;86.30;;;7.10;99.90;;;;;;5043393;28;20141;-72
2021/12/16 08:38:20;;;;;;;510.13;90.97;;;7.20;99.90;;;;;;5025182;28;20208;-72
2021/12/16 08:40:50;;;;;;;463.25;88.72;;;7.20;99.90;;;;;;5041180;28;20131;-72
2021/12/16 08:43:17;;;;;;;498.67;89.30;;;7.20;99.90;;;;;;5025849;28;20511;-72
2021/12/16 08:45:44;;;;;;;505.25;88.85;;;7.30;99.90;;;;;;5024803;28;20053;-72
2021/12/16 08:48:10;;;;;;;626.33;91.63;;;7.30;99.90;;;;;;5016294;28;20045;-72
2021/12/16 08:50:39;;;;;;;601.78;90.63;;;7.30;99.90;;;;;;5041919;28;20051;-71
2021/12/16 08:53:06;;;;;;;537.08;81.95;;;7.30;99.90;;;;;;5026419;28;20116;-72
2021/12/16 08:55:35;;;;;;;395.90;71.93;;;7.30;99.90;;;;;;5044049;28;20067;-73
2021/12/16 08:58:03;;;;;;;448.67;80.70;;;7.30;99.90;;;;;;5042468;28;20061;-72
2021/12/16 09:00:38;;;;;;;425.80;79.20;;;7.30;99.90;;;;;;5011327;28;20491;-72
2021/12/16 09:03:06;;;;;;;568.08;89.35;;;7.40;99.90;;;;;;5045652;28;20519;-72
2021/12/16 09:05:33;;;;;;;605.75;92.85;;;7.40;99.90;;;;;;5012170;28;20552;-72
2021/12/16 09:08:03;;;;;;;543.38;86.82;;;7.40;99.90;;;;;;5031265;28;20195;-72
2021/12/16 09:10:34;;;;;;;540.17;90.03;;;7.40;99.90;;;;;;5045355;28;20084;-72
2021/12/16 09:13:03;;;;;;;435.98;79.80;;;7.50;99.90;;;;;;5043651;28;20092;-72
2021/12/16 09:15:40;;;;;;;346.98;71.13;;;7.50;99.90;;;;;;5028120;28;20052;-73
2021/12/16 09:18:09;;;;;;;422.90;79.03;;;7.50;99.90;;;;;;5027490;28;20060;-73
2021/12/16 09:20:37;;;;;;;420.02;74.32;;;7.50;99.90;;;;;;5045117;28;20049;-72
2021/12/16 09:23:05;;;;;;;494.80;77.65;;;7.60;99.90;;;;;;5030007;28;20041;-72
2021/12/16 09:25:31;;;;;;;482.80;76.40;;;7.60;99.90;;;;;;5013535;28;20049;-72
2021/12/16 09:27:56;;;;;;;447.75;75.40;;;7.60;99.90;;;;;;5045693;28;20057;-73
2021/12/16 09:30:25;;;;;;;411.73;72.53;;;7.60;99.90;;;;;;5002311;28;20038;-72
2021/12/16 09:32:53;;;;;;;453.65;74.38;;;7.60;99.90;;;;;;5041153;28;20170;-72
2021/12/16 09:35:20;;;;;;;331.52;63.08;;;7.60;99.90;;;;;;5036497;28;20805;-73
2021/12/16 09:37:46;;;;;;;393.83;68.07;;;7.60;99.90;;;;;;5023043;28;20045;-73
2021/12/16 09:40:19;;;;;;;279.05;59.30;;;7.60;99.90;;;;;;5035343;28;20523;-72
2021/12/16 09:42:45;;;;;;;391.65;68.03;;;7.60;99.90;;;;;;5020057;28;20187;-72
2021/12/16 09:45:13;;;;;;;301.27;61.15;;;7.60;99.90;;;;;;5040287;28;20075;-72
2021/12/16 09:47:40;;;;;;;184.65;52.17;;;7.60;99.90;;;;;;4997683;28;20045;-73
2021/12/16 09:50:08;;;;;;;174.40;49.85;;;7.70;99.90;;;;;;5044166;28;20488;-72
2021/12/16 09:52:35;;;;;;;144.75;48.20;;;7.70;99.90;;;;;;5009698;28;20515;-72
2021/12/16 09:55:02;;;;;;;221.50;54.15;;;7.70;99.90;;;;;;5025082;28;20045;-72
2021/12/16 09:57:31;;;;;;;161.27;50.55;;;7.70;99.90;;;;;;5036526;28;20127;-73
2021/12/16 09:59:57;;;;;;;200.38;53.30;;;7.80;99.90;;;;;;5039237;28;20049;-73
2021/12/16 10:02:24;;;;;;;187.82;52.15;;;7.80;99.90;;;;;;5019337;28;20124;-73
2021/12/16 10:04:50;;;;;;;174.85;49.78;;;7.80;99.90;;;;;;5058392;28;20055;-72
2021/12/16 10:07:19;;;;;;;188.43;51.85;;;7.90;99.90;;;;;;5042991;28;20403;-73
2021/12/16 10:09:47;;;;;;;175.85;50.40;;;7.90;99.90;;;;;;5042221;28;20055;-73
2021/12/16 10:12:18;;;;;;;154.32;46.90;;;7.90;99.90;;;;;;5044281;28;20049;-73
2021/12/16 10:17:24;;;;;;;142.50;44.42;;;7.90;99.90;;;;;;5044410;28;20116;-72
2021/12/16 10:19:51;;;;;;;164.68;46.90;;;7.90;99.90;;;;;;5024928;28;20076;-72
2021/12/16 10:22:21;;;;;;;101.03;41.05;;;7.90;99.90;;;;;;5020845;28;20032;-73
2021/12/16 10:24:48;;;;;;;128.48;45.08;;;8.00;99.90;;;;;;5042644;28;20515;-73
2021/12/16 10:27:19;;;;;;;132.10;43.97;;;7.90;99.90;;;;;;5045090;28;20571;-74
2021/12/16 10:29:53;;;;;;;142.20;44.00;;;7.90;99.90;;;;;;5029180;28;20041;-73
2021/12/16 10:32:41;;;;;;;124.13;43.70;;;7.90;99.90;;;;;;5042670;28;20063;-73
2021/12/16 10:35:17;;;;;;;147.35;45.90;;;8.00;99.90;;;;;;5060019;28;20049;-73
2021/12/16 10:37:50;;;;;;;106.20;41.22;;;8.00;99.90;;;;;;5045679;28;20095;-73
2021/12/16 10:40:37;;;;;;;123.45;43.75;;;8.00;99.90;;;;;;5045421;28;20060;-73
2021/12/16 10:43:09;;;;;;;154.23;45.22;;;8.00;99.90;;;;;;5028156;28;20041;-73
2021/12/16 10:45:48;;;;;;;80.28;37.15;;;8.00;99.90;;;;;;5040424;28;20112;-73
2021/12/16 10:48:24;;;;;;;86.53;38.35;;;8.00;99.90;;;;;;5042797;28;20569;-73
2021/12/16 10:51:03;;;;;;;168.55;46.67;;;8.10;99.90;;;;;;5026367;28;20514;-73
2021/12/16 10:54:19;;;;;;;110.32;41.08;;;8.10;99.90;;;;;;5042070;28;20455;-73
2021/12/16 10:56:58;;;;;;;214.38;49.22;;;8.10;99.90;;;;;;5032263;28;20096;-73
2021/12/16 10:59:35;;;;;;;174.68;42.70;;;8.10;99.90;;;;;;5055517;28;20057;-73
2021/12/16 11:02:07;;;;;;;181.90;47.17;;;8.10;99.90;;;;;;5038132;28;20051;-73
2021/12/16 11:04:43;;;;;;;187.20;45.40;;;8.10;99.90;;;;;;5039755;28;20098;-74
2021/12/16 11:07:45;;;;;;;110.13;39.03;;;8.20;99.90;;;;;;5039608;28;20056;-72
2021/12/16 11:10:18;;;;;;;94.40;36.25;;;8.20;99.90;;;;;;5025205;28;20140;-72
2021/12/16 11:12:46;;;;;;;230.57;49.38;;;8.20;99.90;;;;;;5034653;28;20496;-73
2021/12/16 11:15:12;;;;;;;135.13;40.60;;;8.20;99.90;;;;;;5039635;28;20038;-72
2021/12/16 11:17:49;;;;;;;208.18;49.08;;;8.30;99.90;;;;;;5033369;28;20064;-72
2021/12/16 11:20:34;;;;;;;131.43;41.03;;;8.30;99.90;;;;;;5038827;28;20527;-73
2021/12/16 11:23:17;;;;;;;222.68;46.65;;;8.30;99.90;;;;;;5021254;28;20227;-73
2021/12/16 11:26:01;;;;;;;197.77;45.53;;;8.30;99.90;;;;;;5038161;28;20037;-72
2021/12/16 11:28:35;;;;;;;169.15;44.10;;;8.40;99.90;;;;;;5041577;28;20080;-72
2021/12/16 11:31:03;;;;;;;182.23;43.75;;;8.40;99.90;;;;;;5036703;28;20036;-72
2021/12/16 11:33:49;;;;;;;96.88;38.47;;;8.40;99.90;;;;;;5026965;28;20120;-72
2021/12/16 11:36:24;;;;;;;175.65;43.78;;;8.40;99.90;;;;;;5040734;28;20538;-72
2021/12/16 11:38:51;;;;;;;208.23;44.25;;;8.40;99.90;;;;;;5020064;28;20049;-72
2021/12/16 11:41:22;;;;;;;171.35;42.47;;;8.40;99.90;;;;;;5011014;28;20132;-73
2021/12/16 11:44:03;;;;;;;144.35;41.22;;;8.40;99.90;;;;;;5030182;28;20056;-72
2021/12/16 11:46:40;;;;;;;174.68;42.60;;;8.40;99.90;;;;;;5033178;28;20114;-72
2021/12/16 11:49:24;;;;;;;87.10;35.50;;;8.40;99.90;;;;;;5033219;28;20083;-73
2021/12/16 11:52:15;;;;;;;107.57;38.60;;;8.40;99.90;;;;;;5034321;28;20045;-72
2021/12/16 11:54:43;;;;;;;133.43;38.55;;;8.40;99.90;;;;;;5038467;28;20439;-72
2021/12/16 11:57:30;;;;;;;211.13;45.17;;;8.50;99.90;;;;;;5042232;28;20096;-72
2021/12/16 12:00:07;;;;;;;129.82;40.83;;;8.50;99.90;;;;;;5028418;28;20041;-72
2021/12/16 12:02:47;;;;;;;117.88;39.78;;;8.50;99.90;;;;;;5024164;28;20184;-73
2021/12/16 12:05:27;;;;;;;115.47;38.30;;;8.40;99.90;;;;;;5019651;28;20056;-73
2021/12/16 12:07:59;;;;;;;222.15;46.40;;;8.40;99.90;;;;;;5029835;28;20051;-73
2021/12/16 12:11:16;;;;;;;197.02;45.33;;;8.40;99.90;;;;;;5005837;28;20075;-72
2021/12/16 12:13:56;;;;;;;182.30;44.08;;;8.40;99.90;;;;;;5006044;28;20307;-72
2021/12/16 12:16:34;;;;;;;203.05;47.05;;;8.50;99.90;;;;;;5039885;28;20096;-73
2021/12/16 12:19:20;;;;;;;201.07;45.05;;;8.50;99.90;;;;;;5041193;28;20468;-72
2021/12/16 12:21:57;;;;;;;186.02;42.70;;;8.50;99.90;;;;;;5022564;28;20081;-73
2021/12/16 12:24:46;;;;;;;196.07;43.20;;;8.50;99.90;;;;;;5024908;28;20041;-72
2021/12/16 12:27:19;;;;;;;212.63;43.47;;;8.50;99.90;;;;;;5028035;28;20065;-72
2021/12/16 12:29:58;;;;;;;181.70;42.67;;;8.50;99.90;;;;;;5015010;28;20041;-73
2021/12/16 12:32:42;;;;;;;203.07;42.53;;;8.50;99.90;;;;;;5039268;28;20099;-72
2021/12/16 12:35:20;;;;;;;258.55;47.40;;;8.50;99.90;;;;;;5020222;28;20063;-72
2021/12/16 12:37:50;;;;;;;286.55;47.45;;;8.50;99.90;;;;;;5035556;28;20095;-73
2021/12/16 12:40:29;;;;;;;257.05;47.15;;;8.50;99.90;;;;;;5042810;28;20041;-72
2021/12/16 12:42:57;;;;;;;199.05;41.30;;;8.50;99.90;;;;;;5043088;28;20110;-71
2021/12/16 12:45:42;;;;;;;186.38;43.90;;;8.50;99.90;;;;;;5042750;28;20048;-72
2021/12/16 12:48:14;;;;;;;259.88;43.35;;;8.50;99.90;;;;;;5039598;28;20045;-72
2021/12/16 12:50:43;;;;;;;232.25;41.25;;;8.50;99.90;;;;;;5043559;28;20057;-73
2021/12/16 12:53:19;;;;;;;259.42;44.58;;;8.60;99.90;;;;;;5024719;28;20049;-73
2021/12/16 12:55:46;;;;;;;220.80;42.38;;;8.50;99.90;;;;;;5043324;28;20153;-72
2021/12/16 12:58:16;;;;;;;252.88;44.92;;;8.50;99.90;;;;;;5026175;28;20053;-72
2021/12/16 13:00:45;;;;;;;208.65;41.72;;;8.50;99.90;;;;;;5024591;28;20080;-72
2021/12/16 13:03:17;;;;;;;281.95;43.67;;;8.50;99.90;;;;;;5036235;28;20566;-72
2021/12/16 13:06:01;;;;;;;450.35;59.80;;;8.50;99.90;;;;;;5021330;28;20048;-72
2021/12/16 13:08:32;;;;;;;318.60;44.40;;;8.50;99.90;;;;;;5052201;28;20491;-72
2021/12/16 13:11:06;;;;;;;229.93;42.95;;;8.60;99.90;;;;;;5036855;28;20042;-72
2021/12/16 13:13:45;;;;;;;246.90;42.53;;;8.60;99.90;;;;;;5035984;28;20447;-72
2021/12/16 13:17:31;;;;;;;277.77;42.65;;;8.50;99.90;;;;;;5032692;28;20091;-72
2021/12/16 13:28:27;;;;;;;209.52;37.08;;;8.60;99.90;;;;;;5036353;28;20033;-72
2021/12/16 13:31:02;;;;;;;149.82;32.83;;;8.70;99.90;;;;;;5022697;28;20523;-72
2021/12/16 13:33:46;;;;;;;114.22;30.02;;;8.70;99.90;;;;;;5018616;28;20052;-72
2021/12/16 13:36:17;;;;;;;164.68;32.58;;;8.70;99.90;;;;;;5033521;28;20159;-72
2021/12/16 13:38:48;;;;;;;133.27;30.80;;;8.70;99.90;;;;;;5037535;28;20080;-71
2021/12/16 13:41:23;;;;;;;160.75;31.75;;;8.80;99.90;;;;;;5022045;28;20641;-72
2021/12/16 13:44:01;;;;;;;230.88;36.58;;;8.70;99.90;;;;;;5021817;28;20558;-72
2021/12/16 13:46:44;;;;;;;200.13;36.28;;;8.80;99.90;;;;;;5034244;28;20514;-72
2021/12/16 14:03:16;;;;;;;176.93;35.53;;;8.70;99.90;;;;;;5055830;28;20528;-72
2021/12/16 14:08:45;;;;;;;203.23;38.15;;;8.60;99.90;;;;;;5043417;28;20432;-72
2021/12/16 14:17:26;;;;;;;157.40;36.28;;;8.60;99.90;;;;;;5046875;28;20507;-72
2021/12/16 14:42:07;;;;;;;155.80;35.33;;;8.50;99.90;;;;;;5043103;28;20297;-72
2021/12/16 14:50:27;;;;;;;194.50;38.47;;;8.40;99.90;;;;;;5035831;28;20086;-72
2021/12/16 14:52:55;;;;;;;201.75;39.08;;;8.40;99.90;;;;;;5042038;28;20069;-72
2021/12/16 14:55:22;;;;;;;244.85;40.92;;;8.40;99.90;;;;;;5023336;28;20048;-74
2021/12/16 14:57:53;;;;;;;282.83;42.97;;;8.40;99.90;;;;;;5052440;28;20487;-72
2021/12/16 15:00:23;;;;;;;205.73;38.35;;;8.40;99.90;;;;;;5024806;28;20098;-73
2021/12/16 15:02:58;;;;;;;206.60;39.53;;;8.40;99.90;;;;;;5043348;28;20056;-72
2021/12/16 15:05:29;;;;;;;228.57;39.95;;;8.40;99.90;;;;;;5028419;28;20387;-73
2021/12/16 15:08:04;;;;;;;228.05;39.83;;;8.40;99.90;;;;;;5043692;28;20443;-72
2021/12/16 15:10:30;;;;;;;264.63;43.72;;;8.40;99.90;;;;;;5028742;28;20102;-73
2021/12/16 15:13:07;;;;;;;137.68;32.53;;;8.30;99.90;;;;;;5042299;28;20470;-72
2021/12/16 15:40:39;;;;;;;232.48;36.50;;;8.30;99.90;;;;;;5012875;28;20583;-72
2021/12/16 15:43:08;;;;;;;245.38;37.70;;;8.30;99.90;;;;;;5041514;28;20700;-71
2021/12/16 15:45:44;;;;;;;259.17;38.35;;;8.30;99.90;;;;;;5039176;28;20761;-71
2021/12/16 15:48:16;;;;;;;134.20;30.10;;;8.30;99.90;;;;;;5042054;28;20048;-71
2021/12/16 15:50:46;;;;;;;220.82;34.97;;;8.30;99.90;;;;;;5042416;28;20751;-72
2021/12/16 15:53:21;;;;;;;313.27;41.40;;;8.30;99.90;;;;;;5043138;28;20047;-72
2021/12/16 15:56:05;;;;;;;364.17;42.90;;;8.30;99.90;;;;;;5044501;28;20055;-71
2021/12/16 15:58:34;;;;;;;356.02;42.75;;;8.30;99.90;;;;;;5026979;28;20041;-72
2021/12/16 16:01:24;;;;;;;267.33;41.33;;;8.30;99.90;;;;;;5042929;28;20102;-72
2021/12/16 16:03:50;;;;;;;223.13;36.77;;;8.30;99.90;;;;;;5027013;28;20041;-72
2021/12/16 16:06:16;;;;;;;168.68;33.58;;;8.30;99.90;;;;;;5036895;28;20049;-72
2021/12/16 16:08:55;;;;;;;107.90;26.17;;;8.30;99.90;;;;;;5007609;28;20040;-71
2021/12/16 16:11:26;;;;;;;119.45;29.70;;;8.40;99.90;;;;;;5025592;28;20040;-71
2021/12/16 16:13:57;;;;;;;115.32;27.00;;;8.40;99.90;;;;;;5043885;28;20045;-72
2021/12/16 16:16:31;;;;;;;105.25;26.20;;;8.40;99.90;;;;;;5038004;28;20507;-72
2021/12/16 16:19:03;;;;;;;115.57;27.52;;;8.30;99.90;;;;;;5020377;28;20056;-71
2021/12/16 16:21:48;;;;;;;159.80;30.63;;;8.30;99.90;;;;;;5034029;28;20663;-71
2021/12/16 16:24:21;;;;;;;112.57;27.40;;;8.30;99.90;;;;;;5023570;28;20504;-72
2021/12/16 16:26:51;;;;;;;151.85;28.92;;;8.30;99.90;;;;;;5040275;28;20041;-72
2021/12/16 16:29:21;;;;;;;68.22;22.95;;;8.30;99.90;;;;;;5047238;28;20037;-73
2021/12/16 16:31:48;;;;;;;205.88;33.50;;;8.30;99.90;;;;;;5031929;28;20307;-72
2021/12/16 16:34:28;;;;;;;277.63;36.17;;;8.30;99.90;;;;;;5021535;28;20059;-73
2021/12/16 16:37:04;;;;;;;298.95;35.40;;;8.30;99.90;;;;;;5018401;28;20156;-72
2021/12/16 16:39:36;;;;;;;244.20;32.45;;;8.30;99.90;;;;;;5031958;28;20522;-72
2021/12/16 16:42:06;;;;;;;242.15;32.20;;;8.30;99.90;;;;;;5013046;28;20484;-72
2021/12/16 16:44:33;;;;;;;239.07;32.45;;;8.30;99.90;;;;;;5017430;28;20144;-72